Lexington, Missouri
Current Conditions -  °F | °C
As of 11:15 AM on Sunday 21 Dec 2014 (Local Time) from KGPH Reporting Station
Overcast Overcast  
Wind Chill:   Ceiling: 2300
Heat Index:   Visibility: 10mi
Dew Point:   Wind: 10mph
Humidity: 81%   Direction: 180°S
Pressure: 29.99"   Gusts: NA
Location:  39.18°N, 93.88°W
Report Text: KGPH 211715Z AUTO 18009KT 10SM SCT012 OVC023 06/03 A2999 RMK AO2
Loading
Personal Weather Stations






























Interactive Weather Map New forecast layout! Learn more

10-Day Weather Forecast

Advertisements
Track Severe Weather on mobile